sensor_id;sensor_type;location;lat;lon;timestamp;pressure;altitude;pressure_sealevel;temperature;humidity
71149;BME280;59072;42.144;25.200;2024-02-28T00:01:59;100602.19;;;6.18;100.00
71149;BME280;59072;42.144;25.200;2024-02-28T00:04:25;100610.88;;;6.27;100.00
71149;BME280;59072;42.144;25.200;2024-02-28T00:06:50;100604.81;;;6.18;100.00
71149;BME280;59072;42.144;25.200;2024-02-28T00:09:15;100611.59;;;5.97;100.00
71149;BME280;59072;42.144;25.200;2024-02-28T00:11:45;100621.66;;;5.94;100.00
71149;BME280;59072;42.144;25.200;2024-02-28T00:14:11;100605.66;;;5.87;100.00
71149;BME280;59072;42.144;25.200;2024-02-28T00:16:40;100620.03;;;5.93;100.00
71149;BME280;59072;42.144;25.200;2024-02-28T00:19:06;100620.25;;;5.83;100.00
71149;BME280;59072;42.144;25.200;2024-02-28T00:21:32;100589.22;;;5.69;100.00
71149;BME280;59072;42.144;25.200;2024-02-28T00:23:57;100622.84;;;5.91;100.00
71149;BME280;59072;42.144;25.200;2024-02-28T00:26:22;100599.16;;;5.67;100.00
71149;BME280;59072;42.144;25.200;2024-02-28T00:28:48;100618.19;;;6.01;100.00
71149;BME280;59072;42.144;25.200;2024-02-28T00:31:13;100620.84;;;5.93;100.00
71149;BME280;59072;42.144;25.200;2024-02-28T00:33:39;100612.56;;;5.96;100.00
71149;BME280;59072;42.144;25.200;2024-02-28T00:36:04;100615.88;;;5.90;100.00
71149;BME280;59072;42.144;25.200;2024-02-28T00:38:30;100617.69;;;5.98;100.00
71149;BME280;59072;42.144;25.200;2024-02-28T00:40:55;100633.84;;;6.11;100.00
71149;BME280;59072;42.144;25.200;2024-02-28T00:43:20;100623.47;;;6.01;100.00
71149;BME280;59072;42.144;25.200;2024-02-28T00:45:46;100604.47;;;5.90;100.00
71149;BME280;59072;42.144;25.200;2024-02-28T00:48:11;100605.06;;;5.77;100.00
71149;BME280;59072;42.144;25.200;2024-02-28T00:50:37;100599.53;;;5.95;100.00
71149;BME280;59072;42.144;25.200;2024-02-28T00:53:02;100608.28;;;5.95;100.00
71149;BME280;59072;42.144;25.200;2024-02-28T00:55:28;100615.03;;;5.98;100.00
71149;BME280;59072;42.144;25.200;2024-02-28T00:57:53;100629.53;;;6.10;100.00
71149;BME280;59072;42.144;25.200;2024-02-28T01:00:19;100602.75;;;5.74;100.00
71149;BME280;59072;42.144;25.200;2024-02-28T01:02:44;100618.34;;;5.69;100.00
71149;BME280;59072;42.144;25.200;2024-02-28T01:05:10;100604.66;;;5.57;100.00
71149;BME280;59072;42.144;25.200;2024-02-28T01:07:35;100623.50;;;5.62;100.00
71149;BME280;59072;42.144;25.200;2024-02-28T01:10:01;100633.53;;;5.75;100.00
71149;BME280;59072;42.144;25.200;2024-02-28T01:12:27;100606.63;;;5.63;100.00
71149;BME280;59072;42.144;25.200;2024-02-28T01:14:53;100623.22;;;5.80;100.00
71149;BME280;59072;42.144;25.200;2024-02-28T01:17:18;100643.19;;;5.91;100.00
71149;BME280;59072;42.144;25.200;2024-02-28T01:19:43;100633.03;;;5.71;100.00
71149;BME280;59072;42.144;25.200;2024-02-28T01:22:09;100625.00;;;5.56;100.00
71149;BME280;59072;42.144;25.200;2024-02-28T01:24:34;100631.19;;;5.72;100.00
71149;BME280;59072;42.144;25.200;2024-02-28T01:27:00;100619.03;;;5.62;100.00
71149;BME280;59072;42.144;25.200;2024-02-28T01:29:26;100625.34;;;5.53;100.00
71149;BME280;59072;42.144;25.200;2024-02-28T01:31:52;100650.91;;;5.69;100.00
71149;BME280;59072;42.144;25.200;2024-02-28T01:34:18;100615.13;;;5.50;100.00
71149;BME280;59072;42.144;25.200;2024-02-28T01:36:44;100643.28;;;5.74;100.00
71149;BME280;59072;42.144;25.200;2024-02-28T01:39:09;100632.00;;;5.80;100.00
71149;BME280;59072;42.144;25.200;2024-02-28T01:41:34;100620.28;;;6.06;100.00
71149;BME280;59072;42.144;25.200;2024-02-28T01:44:00;100622.03;;;5.91;100.00
71149;BME280;59072;42.144;25.200;2024-02-28T01:46:26;100624.41;;;6.09;100.00
71149;BME280;59072;42.144;25.200;2024-02-28T01:48:53;100652.22;;;6.36;100.00
71149;BME280;59072;42.144;25.200;2024-02-28T01:51:21;100651.72;;;6.32;100.00
71149;BME280;59072;42.144;25.200;2024-02-28T01:53:48;100606.28;;;5.97;100.00
71149;BME280;59072;42.144;25.200;2024-02-28T01:56:15;100581.97;;;5.62;100.00
71149;BME280;59072;42.144;25.200;2024-02-28T01:58:43;100628.50;;;5.80;100.00
71149;BME280;59072;42.144;25.200;2024-02-28T02:01:13;100623.06;;;5.50;100.00
71149;BME280;59072;42.144;25.200;2024-02-28T02:03:38;100614.63;;;5.47;100.00
71149;BME280;59072;42.144;25.200;2024-02-28T02:06:04;100631.31;;;5.47;100.00
71149;BME280;59072;42.144;25.200;2024-02-28T02:08:30;100629.72;;;5.69;100.00
71149;BME280;59072;42.144;25.200;2024-02-28T02:10:56;100644.47;;;5.63;100.00
71149;BME280;59072;42.144;25.200;2024-02-28T02:13:22;100643.31;;;5.66;100.00
71149;BME280;59072;42.144;25.200;2024-02-28T02:15:47;100606.09;;;5.28;100.00
71149;BME280;59072;42.144;25.200;2024-02-28T02:18:12;100641.94;;;5.39;100.00
71149;BME280;59072;42.144;25.200;2024-02-28T02:20:40;100635.97;;;5.37;100.00
71149;BME280;59072;42.144;25.200;2024-02-28T02:23:08;100630.03;;;5.35;100.00
71149;BME280;59072;42.144;25.200;2024-02-28T02:25:34;100625.72;;;5.42;100.00
71149;BME280;59072;42.144;25.200;2024-02-28T02:27:59;100644.31;;;5.17;100.00
71149;BME280;59072;42.144;25.200;2024-02-28T02:30:25;100630.59;;;5.14;100.00
71149;BME280;59072;42.144;25.200;2024-02-28T02:32:50;100644.41;;;5.40;100.00
71149;BME280;59072;42.144;25.200;2024-02-28T02:35:16;100612.13;;;5.06;100.00
71149;BME280;59072;42.144;25.200;2024-02-28T02:37:44;100647.31;;;4.98;100.00
71149;BME280;59072;42.144;25.200;2024-02-28T02:40:14;100640.38;;;5.13;100.00
71149;BME280;59072;42.144;25.200;2024-02-28T02:42:40;100653.50;;;5.46;100.00
71149;BME280;59072;42.144;25.200;2024-02-28T02:45:05;100677.59;;;5.99;100.00
71149;BME280;59072;42.144;25.200;2024-02-28T02:47:31;100676.22;;;6.11;100.00
71149;BME280;59072;42.144;25.200;2024-02-28T02:49:56;100655.41;;;6.00;100.00
71149;BME280;59072;42.144;25.200;2024-02-28T02:52:22;100663.19;;;5.93;100.00
71149;BME280;59072;42.144;25.200;2024-02-28T02:54:47;100673.31;;;5.50;100.00
71149;BME280;59072;42.144;25.200;2024-02-28T02:57:12;100676.75;;;5.98;100.00
71149;BME280;59072;42.144;25.200;2024-02-28T02:59:38;100676.06;;;6.04;100.00
71149;BME280;59072;42.144;25.200;2024-02-28T03:02:04;100693.13;;;6.02;100.00
71149;BME280;59072;42.144;25.200;2024-02-28T03:04:29;100696.31;;;5.97;100.00
71149;BME280;59072;42.144;25.200;2024-02-28T03:06:54;100706.19;;;6.03;100.00
71149;BME280;59072;42.144;25.200;2024-02-28T03:09:20;100700.41;;;6.00;100.00
71149;BME280;59072;42.144;25.200;2024-02-28T03:11:45;100709.84;;;6.02;100.00
71149;BME280;59072;42.144;25.200;2024-02-28T03:14:10;100691.72;;;5.83;100.00
71149;BME280;59072;42.144;25.200;2024-02-28T03:16:41;100705.13;;;5.73;100.00
71149;BME280;59072;42.144;25.200;2024-02-28T03:19:06;100705.34;;;5.63;100.00
71149;BME280;59072;42.144;25.200;2024-02-28T03:21:32;100695.44;;;5.57;100.00
71149;BME280;59072;42.144;25.200;2024-02-28T03:23:57;100712.28;;;5.64;100.00
71149;BME280;59072;42.144;25.200;2024-02-28T03:26:22;100702.88;;;5.62;100.00
71149;BME280;59072;42.144;25.200;2024-02-28T03:28:48;100680.25;;;5.51;100.00
71149;BME280;59072;42.144;25.200;2024-02-28T03:31:13;100704.59;;;5.86;100.00
71149;BME280;59072;42.144;25.200;2024-02-28T03:33:39;100706.91;;;5.97;100.00
71149;BME280;59072;42.144;25.200;2024-02-28T03:36:04;100702.69;;;5.63;100.00
71149;BME280;59072;42.144;25.200;2024-02-28T03:38:30;100704.63;;;5.78;100.00
71149;BME280;59072;42.144;25.200;2024-02-28T03:40:55;100683.69;;;5.60;100.00
71149;BME280;59072;42.144;25.200;2024-02-28T03:43:21;100718.88;;;5.69;100.00
71149;BME280;59072;42.144;25.200;2024-02-28T03:45:46;100702.59;;;5.88;100.00
71149;BME280;59072;42.144;25.200;2024-02-28T03:48:11;100683.91;;;5.90;100.00
71149;BME280;59072;42.144;25.200;2024-02-28T03:50:37;100697.25;;;6.04;100.00
71149;BME280;59072;42.144;25.200;2024-02-28T03:53:03;100694.31;;;5.91;100.00
71149;BME280;59072;42.144;25.200;2024-02-28T03:55:29;100701.69;;;5.73;100.00
71149;BME280;59072;42.144;25.200;2024-02-28T03:57:54;100704.50;;;5.63;100.00
71149;BME280;59072;42.144;25.200;2024-02-28T04:00:20;100703.09;;;5.44;100.00
71149;BME280;59072;42.144;25.200;2024-02-28T04:02:45;100720.25;;;5.56;100.00
71149;BME280;59072;42.144;25.200;2024-02-28T04:05:10;100713.44;;;5.70;100.00
71149;BME280;59072;42.144;25.200;2024-02-28T04:07:36;100702.75;;;5.39;100.00
71149;BME280;59072;42.144;25.200;2024-02-28T04:10:02;100731.25;;;4.88;100.00
71149;BME280;59072;42.144;25.200;2024-02-28T04:12:30;100729.25;;;4.57;100.00
71149;BME280;59072;42.144;25.200;2024-02-28T04:14:55;100696.53;;;4.33;100.00
71149;BME280;59072;42.144;25.200;2024-02-28T04:17:20;100696.22;;;4.69;100.00
71149;BME280;59072;42.144;25.200;2024-02-28T04:19:46;100720.50;;;4.97;100.00
71149;BME280;59072;42.144;25.200;2024-02-28T04:22:11;100725.63;;;5.15;100.00
71149;BME280;59072;42.144;25.200;2024-02-28T04:24:36;100705.59;;;5.21;100.00
71149;BME280;59072;42.144;25.200;2024-02-28T04:27:02;100708.78;;;5.08;100.00
71149;BME280;59072;42.144;25.200;2024-02-28T04:29:29;100715.00;;;5.40;100.00
71149;BME280;59072;42.144;25.200;2024-02-28T04:31:55;100715.06;;;5.07;100.00
71149;BME280;59072;42.144;25.200;2024-02-28T04:34:20;100709.25;;;5.28;100.00
71149;BME280;59072;42.144;25.200;2024-02-28T04:36:46;100702.78;;;5.22;100.00
71149;BME280;59072;42.144;25.200;2024-02-28T04:39:11;100712.28;;;5.64;100.00
71149;BME280;59072;42.144;25.200;2024-02-28T04:41:36;100706.50;;;5.61;100.00
71149;BME280;59072;42.144;25.200;2024-02-28T04:44:02;100707.44;;;5.84;100.00
71149;BME280;59072;42.144;25.200;2024-02-28T04:46:28;100720.69;;;5.76;100.00
71149;BME280;59072;42.144;25.200;2024-02-28T04:48:53;100721.88;;;5.57;100.00
71149;BME280;59072;42.144;25.200;2024-02-28T04:51:18;100719.13;;;5.90;100.00
71149;BME280;59072;42.144;25.200;2024-02-28T04:53:44;100720.13;;;5.89;100.00
71149;BME280;59072;42.144;25.200;2024-02-28T04:56:09;100714.03;;;5.97;100.00
71149;BME280;59072;42.144;25.200;2024-02-28T04:58:36;100714.44;;;6.09;100.00
71149;BME280;59072;42.144;25.200;2024-02-28T05:01:01;100711.09;;;6.15;100.00
71149;BME280;59072;42.144;25.200;2024-02-28T05:03:27;100689.94;;;5.67;100.00
71149;BME280;59072;42.144;25.200;2024-02-28T05:05:52;100712.63;;;5.61;100.00
71149;BME280;59072;42.144;25.200;2024-02-28T05:08:19;100721.88;;;5.66;100.00
71149;BME280;59072;42.144;25.200;2024-02-28T05:10:45;100733.41;;;5.81;100.00
71149;BME280;59072;42.144;25.200;2024-02-28T05:13:10;100727.50;;;5.71;100.00
71149;BME280;59072;42.144;25.200;2024-02-28T05:15:36;100717.66;;;5.40;100.00
71149;BME280;59072;42.144;25.200;2024-02-28T05:18:01;100707.56;;;5.43;100.00
71149;BME280;59072;42.144;25.200;2024-02-28T05:20:27;100711.81;;;5.61;100.00
71149;BME280;59072;42.144;25.200;2024-02-28T05:22:52;100722.72;;;5.66;100.00
71149;BME280;59072;42.144;25.200;2024-02-28T05:25:18;100741.69;;;5.70;100.00
71149;BME280;59072;42.144;25.200;2024-02-28T05:27:43;100754.66;;;5.48;100.00
71149;BME280;59072;42.144;25.200;2024-02-28T05:30:09;100746.41;;;5.27;100.00
71149;BME280;59072;42.144;25.200;2024-02-28T05:32:35;100759.16;;;5.15;100.00
71149;BME280;59072;42.144;25.200;2024-02-28T05:35:00;100725.78;;;5.06;100.00
71149;BME280;59072;42.144;25.200;2024-02-28T05:37:26;100741.81;;;5.20;100.00
71149;BME280;59072;42.144;25.200;2024-02-28T05:39:51;100744.81;;;5.01;100.00
71149;BME280;59072;42.144;25.200;2024-02-28T05:42:17;100778.44;;;5.73;100.00
71149;BME280;59072;42.144;25.200;2024-02-28T05:44:50;100765.16;;;5.81;100.00
71149;BME280;59072;42.144;25.200;2024-02-28T05:47:15;100780.00;;;5.90;100.00
71149;BME280;59072;42.144;25.200;2024-02-28T05:49:41;100784.88;;;5.70;100.00
71149;BME280;59072;42.144;25.200;2024-02-28T05:52:07;100770.44;;;5.97;100.00
71149;BME280;59072;42.144;25.200;2024-02-28T05:54:32;100787.06;;;6.14;100.00
71149;BME280;59072;42.144;25.200;2024-02-28T05:56:59;100767.19;;;6.18;100.00
71149;BME280;59072;42.144;25.200;2024-02-28T05:59:25;100789.84;;;6.21;100.00
71149;BME280;59072;42.144;25.200;2024-02-28T06:01:50;100780.09;;;6.53;100.00
71149;BME280;59072;42.144;25.200;2024-02-28T06:04:16;100771.41;;;6.67;100.00
71149;BME280;59072;42.144;25.200;2024-02-28T06:06:41;100784.97;;;6.72;100.00
71149;BME280;59072;42.144;25.200;2024-02-28T06:09:07;100785.56;;;6.82;100.00
71149;BME280;59072;42.144;25.200;2024-02-28T06:11:32;100791.06;;;6.41;100.00
71149;BME280;59072;42.144;25.200;2024-02-28T06:13:58;100802.16;;;6.76;100.00
71149;BME280;59072;42.144;25.200;2024-02-28T06:16:24;100783.88;;;6.81;100.00
71149;BME280;59072;42.144;25.200;2024-02-28T06:18:49;100795.38;;;6.74;100.00
71149;BME280;59072;42.144;25.200;2024-02-28T06:21:15;100780.59;;;6.56;100.00
71149;BME280;59072;42.144;25.200;2024-02-28T06:23:40;100816.88;;;7.02;100.00
71149;BME280;59072;42.144;25.200;2024-02-28T06:26:06;100804.34;;;6.96;100.00
71149;BME280;59072;42.144;25.200;2024-02-28T06:28:31;100803.19;;;6.67;100.00
71149;BME280;59072;42.144;25.200;2024-02-28T06:30:57;100804.75;;;6.84;100.00
71149;BME280;59072;42.144;25.200;2024-02-28T06:33:23;100809.09;;;6.77;100.00
71149;BME280;59072;42.144;25.200;2024-02-28T06:35:48;100813.53;;;6.62;100.00
71149;BME280;59072;42.144;25.200;2024-02-28T06:38:14;100808.16;;;6.70;100.00
71149;BME280;59072;42.144;25.200;2024-02-28T06:40:39;100812.16;;;7.12;100.00
71149;BME280;59072;42.144;25.200;2024-02-28T06:43:05;100800.00;;;7.03;100.00
71149;BME280;59072;42.144;25.200;2024-02-28T06:45:31;100803.47;;;7.03;100.00
71149;BME280;59072;42.144;25.200;2024-02-28T06:47:57;100819.59;;;6.94;100.00
71149;BME280;59072;42.144;25.200;2024-02-28T06:50:23;100797.00;;;7.21;100.00
71149;BME280;59072;42.144;25.200;2024-02-28T06:52:48;100827.31;;;7.64;100.00
71149;BME280;59072;42.144;25.200;2024-02-28T06:55:14;100832.34;;;7.74;100.00
71149;BME280;59072;42.144;25.200;2024-02-28T06:57:40;100811.31;;;7.35;100.00
71149;BME280;59072;42.144;25.200;2024-02-28T07:00:07;100819.28;;;7.35;100.00
71149;BME280;59072;42.144;25.200;2024-02-28T07:02:34;100836.84;;;7.74;100.00
71149;BME280;59072;42.144;25.200;2024-02-28T07:05:00;100818.88;;;7.46;100.00
71149;BME280;59072;42.144;25.200;2024-02-28T07:07:25;100826.31;;;7.80;100.00
71149;BME280;59072;42.144;25.200;2024-02-28T07:09:51;100840.53;;;7.88;100.00
71149;BME280;59072;42.144;25.200;2024-02-28T07:12:16;100810.09;;;7.60;100.00
71149;BME280;59072;42.144;25.200;2024-02-28T07:14:42;100821.59;;;7.91;100.00
71149;BME280;59072;42.144;25.200;2024-02-28T07:17:07;100843.38;;;8.01;100.00
71149;BME280;59072;42.144;25.200;2024-02-28T07:19:33;100827.97;;;7.96;100.00
71149;BME280;59072;42.144;25.200;2024-02-28T07:21:58;100826.41;;;8.17;100.00
71149;BME280;59072;42.144;25.200;2024-02-28T07:24:23;100824.56;;;8.32;100.00
71149;BME280;59072;42.144;25.200;2024-02-28T07:26:49;100812.03;;;8.26;100.00
71149;BME280;59072;42.144;25.200;2024-02-28T07:29:16;100844.16;;;8.61;100.00
71149;BME280;59072;42.144;25.200;2024-02-28T07:31:41;100823.78;;;8.68;100.00
71149;BME280;59072;42.144;25.200;2024-02-28T07:34:07;100837.66;;;8.63;100.00
71149;BME280;59072;42.144;25.200;2024-02-28T07:36:33;100844.72;;;9.14;100.00
71149;BME280;59072;42.144;25.200;2024-02-28T07:38:59;100838.00;;;8.97;100.00
71149;BME280;59072;42.144;25.200;2024-02-28T07:41:24;100819.72;;;8.51;100.00
71149;BME280;59072;42.144;25.200;2024-02-28T07:43:50;100836.19;;;8.97;100.00
71149;BME280;59072;42.144;25.200;2024-02-28T07:46:15;100843.22;;;9.27;100.00
71149;BME280;59072;42.144;25.200;2024-02-28T07:48:41;100828.13;;;9.12;100.00
71149;BME280;59072;42.144;25.200;2024-02-28T07:51:07;100830.03;;;9.18;100.00
71149;BME280;59072;42.144;25.200;2024-02-28T07:53:32;100815.97;;;8.81;100.00
71149;BME280;59072;42.144;25.200;2024-02-28T07:55:58;100851.06;;;9.35;100.00
71149;BME280;59072;42.144;25.200;2024-02-28T07:58:23;100849.88;;;9.65;100.00
71149;BME280;59072;42.144;25.200;2024-02-28T08:00:50;100830.75;;;9.55;100.00
71149;BME280;59072;42.144;25.200;2024-02-28T08:03:15;100815.66;;;9.62;100.00
71149;BME280;59072;42.144;25.200;2024-02-28T08:05:41;100851.09;;;9.91;100.00
71149;BME280;59072;42.144;25.200;2024-02-28T08:08:08;100829.38;;;9.94;100.00
71149;BME280;59072;42.144;25.200;2024-02-28T08:10:34;100829.78;;;9.91;100.00
71149;BME280;59072;42.144;25.200;2024-02-28T08:13:01;100851.03;;;9.84;100.00
71149;BME280;59072;42.144;25.200;2024-02-28T08:15:26;100839.19;;;9.87;100.00
71149;BME280;59072;42.144;25.200;2024-02-28T08:17:51;100800.47;;;9.56;100.00
71149;BME280;59072;42.144;25.200;2024-02-28T08:20:17;100819.13;;;9.91;100.00
71149;BME280;59072;42.144;25.200;2024-02-28T08:22:42;100830.25;;;10.01;100.00
71149;BME280;59072;42.144;25.200;2024-02-28T08:25:08;100832.75;;;10.51;100.00
71149;BME280;59072;42.144;25.200;2024-02-28T08:27:36;100839.03;;;10.30;100.00
71149;BME280;59072;42.144;25.200;2024-02-28T08:30:03;100835.50;;;10.78;100.00
71149;BME280;59072;42.144;25.200;2024-02-28T08:32:28;100826.94;;;11.09;100.00
71149;BME280;59072;42.144;25.200;2024-02-28T08:34:54;100817.50;;;10.93;100.00
71149;BME280;59072;42.144;25.200;2024-02-28T08:37:20;100830.19;;;10.84;100.00
71149;BME280;59072;42.144;25.200;2024-02-28T08:39:45;100837.22;;;11.19;100.00
71149;BME280;59072;42.144;25.200;2024-02-28T08:42:11;100829.00;;;10.94;100.00
71149;BME280;59072;42.144;25.200;2024-02-28T08:44:37;100823.06;;;11.45;98.23
71149;BME280;59072;42.144;25.200;2024-02-28T08:47:02;100815.06;;;11.45;99.82
71149;BME280;59072;42.144;25.200;2024-02-28T08:49:28;100810.94;;;11.49;96.71
71149;BME280;59072;42.144;25.200;2024-02-28T08:51:54;100808.06;;;11.51;97.69
71149;BME280;59072;42.144;25.200;2024-02-28T08:54:19;100815.88;;;11.39;100.00
71149;BME280;59072;42.144;25.200;2024-02-28T08:56:45;100812.78;;;11.95;95.57
71149;BME280;59072;42.144;25.200;2024-02-28T08:59:10;100819.75;;;11.96;95.98
71149;BME280;59072;42.144;25.200;2024-02-28T09:01:36;100826.50;;;12.12;90.99
71149;BME280;59072;42.144;25.200;2024-02-28T09:04:02;100806.56;;;11.88;91.79
71149;BME280;59072;42.144;25.200;2024-02-28T09:06:27;100798.97;;;11.98;89.88
71149;BME280;59072;42.144;25.200;2024-02-28T09:08:53;100801.63;;;12.57;90.36
71149;BME280;59072;42.144;25.200;2024-02-28T09:11:18;100811.94;;;12.53;90.20
71149;BME280;59072;42.144;25.200;2024-02-28T09:13:43;100818.44;;;12.19;91.35
71149;BME280;59072;42.144;25.200;2024-02-28T09:16:09;100820.47;;;12.30;89.86
71149;BME280;59072;42.144;25.200;2024-02-28T09:18:35;100819.56;;;12.50;88.68
71149;BME280;59072;42.144;25.200;2024-02-28T09:21:00;100818.53;;;12.51;88.95
71149;BME280;59072;42.144;25.200;2024-02-28T09:23:25;100818.22;;;13.04;82.93
71149;BME280;59072;42.144;25.200;2024-02-28T09:25:51;100817.03;;;13.57;81.16
71149;BME280;59072;42.144;25.200;2024-02-28T09:28:16;100822.47;;;13.43;81.05
71149;BME280;59072;42.144;25.200;2024-02-28T09:30:42;100797.56;;;13.11;83.97
71149;BME280;59072;42.144;25.200;2024-02-28T09:33:08;100826.28;;;13.79;79.66
71149;BME280;59072;42.144;25.200;2024-02-28T09:35:36;100828.44;;;13.89;78.46
71149;BME280;59072;42.144;25.200;2024-02-28T09:38:02;100810.66;;;14.13;78.53
71149;BME280;59072;42.144;25.200;2024-02-28T09:40:28;100808.47;;;14.40;72.26
71149;BME280;59072;42.144;25.200;2024-02-28T09:43:00;100810.56;;;14.57;74.80
71149;BME280;59072;42.144;25.200;2024-02-28T09:45:26;100804.47;;;14.80;76.10
71149;BME280;59072;42.144;25.200;2024-02-28T09:47:54;100801.41;;;15.30;68.34
71149;BME280;59072;42.144;25.200;2024-02-28T09:50:20;100791.94;;;15.27;67.70
71149;BME280;59072;42.144;25.200;2024-02-28T09:52:48;100801.16;;;14.66;71.09
71149;BME280;59072;42.144;25.200;2024-02-28T09:55:13;100797.78;;;15.13;70.05
71149;BME280;59072;42.144;25.200;2024-02-28T09:57:40;100801.22;;;15.55;69.38
71149;BME280;59072;42.144;25.200;2024-02-28T10:00:07;100793.47;;;15.35;67.51
71149;BME280;59072;42.144;25.200;2024-02-28T10:02:33;100780.59;;;15.25;69.65
71149;BME280;59072;42.144;25.200;2024-02-28T10:04:59;100746.59;;;15.07;68.78
71149;BME280;59072;42.144;25.200;2024-02-28T10:07:26;100777.34;;;15.94;64.97
71149;BME280;59072;42.144;25.200;2024-02-28T10:09:52;100776.41;;;16.41;62.41
71149;BME280;59072;42.144;25.200;2024-02-28T10:12:17;100771.09;;;16.17;66.92
71149;BME280;59072;42.144;25.200;2024-02-28T10:14:44;100761.81;;;16.25;64.80
71149;BME280;59072;42.144;25.200;2024-02-28T10:17:09;100752.41;;;15.99;65.23
71149;BME280;59072;42.144;25.200;2024-02-28T10:19:35;100741.13;;;16.42;68.05
71149;BME280;59072;42.144;25.200;2024-02-28T10:22:00;100751.94;;;17.05;62.82
71149;BME280;59072;42.144;25.200;2024-02-28T10:24:26;100758.84;;;16.38;63.42
71149;BME280;59072;42.144;25.200;2024-02-28T10:26:51;100739.06;;;17.07;60.72
71149;BME280;59072;42.144;25.200;2024-02-28T10:29:23;100732.59;;;17.25;59.11
71149;BME280;59072;42.144;25.200;2024-02-28T10:31:59;100746.59;;;17.44;60.79
71149;BME280;59072;42.144;25.200;2024-02-28T10:34:25;100735.22;;;17.59;59.12
71149;BME280;59072;42.144;25.200;2024-02-28T10:36:51;100733.56;;;17.97;59.39
71149;BME280;59072;42.144;25.200;2024-02-28T10:39:17;100740.75;;;17.86;59.19
71149;BME280;59072;42.144;25.200;2024-02-28T10:41:46;100709.28;;;18.19;56.96
71149;BME280;59072;42.144;25.200;2024-02-28T10:44:12;100731.47;;;18.26;56.40
71149;BME280;59072;42.144;25.200;2024-02-28T10:46:38;100714.66;;;18.19;59.99
71149;BME280;59072;42.144;25.200;2024-02-28T10:49:08;100725.03;;;17.83;58.78
71149;BME280;59072;42.144;25.200;2024-02-28T10:51:35;100723.38;;;17.60;61.59
71149;BME280;59072;42.144;25.200;2024-02-28T10:54:09;100691.47;;;17.74;59.79
71149;BME280;59072;42.144;25.200;2024-02-28T10:56:42;100690.69;;;17.56;60.77
71149;BME280;59072;42.144;25.200;2024-02-28T10:59:10;100697.31;;;17.48;61.71
71149;BME280;59072;42.144;25.200;2024-02-28T11:01:41;100700.13;;;17.98;59.86
71149;BME280;59072;42.144;25.200;2024-02-28T11:04:08;100688.69;;;17.68;61.19
71149;BME280;59072;42.144;25.200;2024-02-28T11:06:33;100679.94;;;18.00;59.71
71149;BME280;59072;42.144;25.200;2024-02-28T11:09:03;100676.47;;;18.32;60.99
71149;BME280;59072;42.144;25.200;2024-02-28T11:11:31;100679.28;;;19.12;56.46
71149;BME280;59072;42.144;25.200;2024-02-28T11:13:58;100688.47;;;19.59;53.89
71149;BME280;59072;42.144;25.200;2024-02-28T11:16:30;100667.25;;;19.35;53.52
71149;BME280;59072;42.144;25.200;2024-02-28T11:18:56;100678.91;;;20.04;51.55
71149;BME280;59072;42.144;25.200;2024-02-28T11:21:26;100670.00;;;20.14;52.08
71149;BME280;59072;42.144;25.200;2024-02-28T11:23:53;100672.94;;;18.91;54.32
71149;BME280;59072;42.144;25.200;2024-02-28T11:26:22;100663.03;;;18.37;58.97
71149;BME280;59072;42.144;25.200;2024-02-28T11:28:47;100664.88;;;18.69;56.57
71149;BME280;59072;42.144;25.200;2024-02-28T11:31:13;100646.78;;;19.02;56.25
71149;BME280;59072;42.144;25.200;2024-02-28T11:33:39;100662.59;;;19.25;52.38
71149;BME280;59072;42.144;25.200;2024-02-28T11:36:05;100654.56;;;19.41;53.17
71149;BME280;59072;42.144;25.200;2024-02-28T11:38:31;100650.03;;;19.04;54.30
71149;BME280;59072;42.144;25.200;2024-02-28T11:40:57;100653.59;;;19.67;52.49
71149;BME280;59072;42.144;25.200;2024-02-28T11:43:22;100661.91;;;20.39;50.32
71149;BME280;59072;42.144;25.200;2024-02-28T11:45:48;100642.34;;;19.86;50.42
71149;BME280;59072;42.144;25.200;2024-02-28T11:48:14;100648.91;;;20.26;49.37
71149;BME280;59072;42.144;25.200;2024-02-28T11:50:39;100640.75;;;20.16;48.13
71149;BME280;59072;42.144;25.200;2024-02-28T11:53:06;100652.19;;;20.69;47.48
71149;BME280;59072;42.144;25.200;2024-02-28T11:55:32;100623.47;;;20.47;46.56
71149;BME280;59072;42.144;25.200;2024-02-28T11:57:58;100630.19;;;20.24;47.36
71149;BME280;59072;42.144;25.200;2024-02-28T12:00:23;100618.38;;;19.57;50.49
71149;BME280;59072;42.144;25.200;2024-02-28T12:02:49;100624.97;;;19.77;50.08
71149;BME280;59072;42.144;25.200;2024-02-28T12:05:14;100619.66;;;20.69;48.64
71149;BME280;59072;42.144;25.200;2024-02-28T12:07:41;100620.09;;;21.27;45.11
71149;BME280;59072;42.144;25.200;2024-02-28T12:10:08;100617.91;;;21.24;45.24
71149;BME280;59072;42.144;25.200;2024-02-28T12:12:34;100622.81;;;21.87;42.91
71149;BME280;59072;42.144;25.200;2024-02-28T12:15:01;100624.59;;;22.02;42.68
71149;BME280;59072;42.144;25.200;2024-02-28T12:17:30;100617.22;;;21.69;43.85
71149;BME280;59072;42.144;25.200;2024-02-28T12:19:55;100600.72;;;22.39;42.03
71149;BME280;59072;42.144;25.200;2024-02-28T12:22:21;100597.63;;;22.56;41.47
71149;BME280;59072;42.144;25.200;2024-02-28T12:24:47;100580.34;;;22.41;41.60
71149;BME280;59072;42.144;25.200;2024-02-28T12:27:12;100594.59;;;22.86;41.17
71149;BME280;59072;42.144;25.200;2024-02-28T12:29:38;100597.44;;;22.02;43.39
71149;BME280;59072;42.144;25.200;2024-02-28T12:32:03;100586.97;;;21.85;42.65
71149;BME280;59072;42.144;25.200;2024-02-28T12:34:29;100595.44;;;22.53;42.61